Terminal Aerodrome Forecast
Issued by NWS

Home | Current Version | Previous Version | Text Only | Print | Product List | Glossary On
Versions: 1 2 3 4 5 6 7 8 9 10 11 12 13
000
FTUS43 KMPX 010500
TAFRNH
TAF
KRNH 010520Z 0106/0206 VRB03KT P6SM SKC
      TEMPO 0110/0113 4SM BR
     FM011600 29004KT P6SM SCT050
     FM011900 31005KT P6SM VCSH SCT050 BKN080 PROB30 0119/0123 5SM
      -TSRA FEW020 BKN050CB=

USA.gov is the U.S. government's official web portal to all federal, state and local government web resources and services.